Time;durP1;ratioP1;P1;durP2;ratioP2;P2;SDS_P1;SDS_P2;PMS_P1;PMS_P2;Temp;Humidity;BMP_temperature;BMP_pressure;BME280_temperature;BME280_humidity;BME280_pressure;Samples;Min_cycle;Max_cycle;Signal;HPM_P1;HPM_P2
2023/12/19 00:01:14;;;;;;;67.63;30.92;;;7.60;99.90;;;;;;4992279;28;20038;-74
2023/12/19 00:03:39;;;;;;;69.22;31.70;;;7.60;99.90;;;;;;4990243;28;20097;-74
2023/12/19 00:06:05;;;;;;;75.03;30.63;;;7.60;99.90;;;;;;4991197;28;20416;-76
2023/12/19 00:08:30;;;;;;;63.08;29.98;;;7.60;99.90;;;;;;4991910;28;20093;-74
2023/12/19 00:10:56;;;;;;;68.60;30.73;;;7.60;99.90;;;;;;4990644;28;20491;-74
2023/12/19 00:13:21;;;;;;;63.15;28.92;;;7.60;99.90;;;;;;4988534;28;20038;-74
2023/12/19 00:15:47;;;;;;;66.43;30.33;;;7.60;99.90;;;;;;4984149;28;20042;-74
2023/12/19 00:18:13;;;;;;;61.03;28.30;;;7.60;99.90;;;;;;4990811;28;20050;-74
2023/12/19 00:20:39;;;;;;;67.07;30.02;;;7.60;99.90;;;;;;4988259;28;20050;-74
2023/12/19 00:23:05;;;;;;;61.15;28.95;;;7.60;99.90;;;;;;4989715;28;20100;-74
2023/12/19 00:25:31;;;;;;;55.97;26.55;;;7.60;99.90;;;;;;4990933;28;20049;-74
2023/12/19 00:27:58;;;;;;;56.65;27.00;;;7.60;99.90;;;;;;4991299;28;20101;-74
2023/12/19 00:30:25;;;;;;;56.22;26.52;;;7.60;99.90;;;;;;4983376;28;20081;-74
2023/12/19 00:32:51;;;;;;;53.92;27.10;;;7.60;99.90;;;;;;4971361;28;20054;-74
2023/12/19 00:35:17;;;;;;;47.05;24.65;;;7.60;99.90;;;;;;4988955;28;20046;-74
2023/12/19 00:37:42;;;;;;;56.08;26.25;;;7.60;99.90;;;;;;5002430;28;20045;-74
2023/12/19 00:40:12;;;;;;;51.00;24.63;;;7.60;99.90;;;;;;4985528;28;20121;-74
2023/12/19 00:42:37;;;;;;;51.88;24.92;;;7.60;99.90;;;;;;4996691;28;20034;-73
2023/12/19 00:45:03;;;;;;;49.55;24.50;;;7.60;99.90;;;;;;4964947;28;20103;-76
2023/12/19 00:47:29;;;;;;;50.50;24.95;;;7.60;99.90;;;;;;4990589;28;20563;-74
2023/12/19 00:49:54;;;;;;;50.10;24.77;;;8.10;99.90;;;;;;4986356;28;20181;-74
2023/12/19 00:52:20;;;;;;;49.38;23.85;;;7.60;99.90;;;;;;4987539;28;20038;-75
2023/12/19 00:54:45;;;;;;;47.42;23.77;;;7.60;99.90;;;;;;4984410;28;20120;-73
2023/12/19 00:57:11;;;;;;;49.00;23.33;;;7.60;99.90;;;;;;4989979;28;20125;-74
2023/12/19 00:59:37;;;;;;;46.25;24.67;;;7.60;99.90;;;;;;4988149;28;20045;-74
2023/12/19 01:02:02;;;;;;;48.58;23.77;;;7.60;99.90;;;;;;4981055;28;20042;-73
2023/12/19 01:04:28;;;;;;;53.55;27.02;;;7.60;99.90;;;;;;4996657;28;20037;-73
2023/12/19 01:06:53;;;;;;;55.88;27.35;;;7.60;99.90;;;;;;4978507;28;20097;-73
2023/12/19 01:09:19;;;;;;;52.97;24.63;;;7.60;99.90;;;;;;4987329;28;20132;-73
2023/12/19 01:11:44;;;;;;;55.65;26.02;;;7.60;99.90;;;;;;4985116;28;20042;-73
2023/12/19 01:14:10;;;;;;;52.58;26.10;;;7.60;99.90;;;;;;4989417;28;20042;-73
2023/12/19 01:16:35;;;;;;;49.53;25.23;;;7.60;99.90;;;;;;4989608;28;20082;-73
2023/12/19 01:19:03;;;;;;;45.95;25.15;;;7.50;99.90;;;;;;4988582;28;20042;-74
2023/12/19 01:21:28;;;;;;;45.85;25.15;;;7.50;99.90;;;;;;4989735;28;20038;-73
2023/12/19 01:23:54;;;;;;;48.03;25.33;;;7.50;99.90;;;;;;4988485;28;20508;-73
2023/12/19 01:26:20;;;;;;;46.35;24.13;;;7.40;99.90;;;;;;4987771;28;20044;-73
2023/12/19 01:28:45;;;;;;;43.75;24.55;;;7.50;99.90;;;;;;4984940;28;20057;-73
2023/12/19 01:31:11;;;;;;;46.20;24.20;;;7.50;99.90;;;;;;4982208;28;20114;-73
2023/12/19 01:33:36;;;;;;;43.10;23.88;;;7.50;99.90;;;;;;4988918;28;20589;-73
2023/12/19 01:36:03;;;;;;;44.67;22.83;;;7.50;99.90;;;;;;4986175;28;20046;-73
2023/12/19 01:38:28;;;;;;;43.85;23.55;;;7.40;99.90;;;;;;4987939;28;20118;-73
2023/12/19 01:40:54;;;;;;;36.80;21.42;;;7.40;99.90;;;;;;4990308;28;20467;-73
2023/12/19 01:43:20;;;;;;;45.45;22.55;;;7.40;99.90;;;;;;4981149;28;20049;-73
2023/12/19 01:45:48;;;;;;;44.00;23.50;;;7.40;99.90;;;;;;4989063;28;20046;-73
2023/12/19 01:48:15;;;;;;;41.53;21.45;;;7.40;99.90;;;;;;4990755;28;20042;-74
2023/12/19 01:50:42;;;;;;;39.15;21.77;;;7.40;99.90;;;;;;4989957;28;20046;-74
2023/12/19 01:53:09;;;;;;;44.28;23.02;;;7.40;99.90;;;;;;4998273;28;20107;-73
2023/12/19 01:55:36;;;;;;;39.95;22.08;;;7.40;99.90;;;;;;4982769;28;20124;-73
2023/12/19 01:58:03;;;;;;;43.80;23.05;;;7.40;99.90;;;;;;4991615;28;20046;-73
2023/12/19 02:00:29;;;;;;;44.33;23.58;;;7.40;99.90;;;;;;4988102;28;20088;-73
2023/12/19 02:02:55;;;;;;;42.88;23.80;;;7.40;99.90;;;;;;4986302;28;20034;-73
2023/12/19 02:05:21;;;;;;;39.97;22.88;;;7.30;99.90;;;;;;4987724;28;20118;-73
2023/12/19 02:07:48;;;;;;;41.85;22.15;;;7.30;99.90;;;;;;5002911;28;20101;-74
2023/12/19 02:10:15;;;;;;;41.00;22.92;;;7.30;99.90;;;;;;4992285;28;20440;-73
2023/12/19 02:12:42;;;;;;;43.65;23.10;;;7.30;99.90;;;;;;4985709;28;20138;-74
2023/12/19 02:15:08;;;;;;;38.03;22.42;;;7.30;99.90;;;;;;4985026;28;20052;-74
2023/12/19 02:17:33;;;;;;;40.15;22.42;;;7.30;99.90;;;;;;4994707;28;20047;-73
2023/12/19 02:19:59;;;;;;;41.00;22.38;;;7.30;99.90;;;;;;4989577;28;20121;-73
2023/12/19 02:22:25;;;;;;;40.75;21.55;;;7.30;99.90;;;;;;4980151;28;20453;-73
2023/12/19 02:24:51;;;;;;;40.47;21.48;;;7.30;99.90;;;;;;4987483;28;20073;-75
2023/12/19 02:27:23;;;;;;;35.50;19.88;;;7.30;99.90;;;;;;4984213;28;20126;-73
2023/12/19 02:29:49;;;;;;;42.25;21.50;;;7.30;99.90;;;;;;5000541;28;20046;-73
2023/12/19 02:32:14;;;;;;;33.97;19.23;;;7.30;99.90;;;;;;4986487;28;20038;-73
2023/12/19 02:34:40;;;;;;;34.55;19.75;;;7.30;99.90;;;;;;4988353;28;20049;-73
2023/12/19 02:37:05;;;;;;;32.78;18.65;;;7.30;99.90;;;;;;4990419;28;20113;-74
2023/12/19 02:39:31;;;;;;;34.72;19.63;;;7.40;99.90;;;;;;4985635;28;20072;-73
2023/12/19 02:41:56;;;;;;;39.15;19.98;;;7.40;99.90;;;;;;4990724;28;20088;-73
2023/12/19 02:44:22;;;;;;;39.35;20.33;;;7.30;99.90;;;;;;4986258;28;20074;-73
2023/12/19 02:46:47;;;;;;;36.85;19.35;;;7.40;99.90;;;;;;4992631;28;20085;-73
2023/12/19 02:49:13;;;;;;;36.50;20.33;;;7.40;99.90;;;;;;5002539;28;20042;-73
2023/12/19 02:51:38;;;;;;;32.00;18.83;;;7.40;99.90;;;;;;4994446;28;20088;-73
2023/12/19 02:54:04;;;;;;;37.10;19.35;;;7.40;99.90;;;;;;4994824;28;20093;-73
2023/12/19 02:56:32;;;;;;;34.28;18.55;;;7.40;99.90;;;;;;4992732;28;20061;-74
2023/12/19 02:58:57;;;;;;;34.40;18.73;;;7.40;99.90;;;;;;4992554;28;20102;-73
2023/12/19 03:01:23;;;;;;;32.28;17.95;;;7.40;99.90;;;;;;4992998;28;20050;-74
2023/12/19 03:03:48;;;;;;;33.10;18.50;;;7.40;99.90;;;;;;4991557;28;20045;-74
2023/12/19 03:06:14;;;;;;;38.28;19.65;;;8.40;99.90;;;;;;4992688;28;20066;-73
2023/12/19 03:08:45;;;;;;;32.83;18.30;;;7.40;99.90;;;;;;4986089;28;20076;-74
2023/12/19 03:11:10;;;;;;;35.25;19.05;;;7.40;99.90;;;;;;4989940;28;20912;-73
2023/12/19 03:13:36;;;;;;;42.38;20.13;;;7.40;99.90;;;;;;5001578;28;20121;-74
2023/12/19 03:16:02;;;;;;;35.28;19.38;;;7.40;99.90;;;;;;4991924;28;20049;-73
2023/12/19 03:18:27;;;;;;;32.58;17.23;;;7.40;99.90;;;;;;4985867;28;20074;-73
2023/12/19 03:20:53;;;;;;;33.55;18.35;;;7.40;99.90;;;;;;4988889;28;20105;-74
2023/12/19 03:23:20;;;;;;;30.27;17.30;;;7.40;99.90;;;;;;4987896;28;20556;-73
2023/12/19 03:25:45;;;;;;;33.38;18.23;;;7.40;99.90;;;;;;4986679;28;20080;-75
2023/12/19 03:28:11;;;;;;;29.88;17.05;;;7.40;99.90;;;;;;4987170;28;20074;-74
2023/12/19 03:30:36;;;;;;;32.65;17.75;;;7.40;99.90;;;;;;4998407;28;20057;-73
2023/12/19 03:33:02;;;;;;;33.20;17.98;;;7.40;99.90;;;;;;5051731;22;20447;-73
2023/12/19 03:35:28;;;;;;;27.63;16.73;;;7.40;99.90;;;;;;5008296;28;20070;-73
2023/12/19 03:37:54;;;;;;;33.08;18.02;;;7.40;99.90;;;;;;5022280;28;20049;-73
2023/12/19 03:40:20;;;;;;;34.05;19.17;;;7.40;99.90;;;;;;5010701;28;20042;-73
2023/12/19 03:42:46;;;;;;;31.70;17.08;;;7.40;99.90;;;;;;4994013;28;20084;-73
2023/12/19 03:45:12;;;;;;;30.65;17.48;;;7.40;99.90;;;;;;4966775;28;20086;-73
2023/12/19 03:47:38;;;;;;;29.80;16.83;;;7.40;99.90;;;;;;4976083;28;20050;-73
2023/12/19 03:50:08;;;;;;;33.80;17.98;;;7.40;99.90;;;;;;4981542;28;20416;-73
2023/12/19 03:52:33;;;;;;;30.63;16.35;;;7.40;99.90;;;;;;4974744;28;20524;-73
2023/12/19 03:54:59;;;;;;;31.30;17.52;;;7.40;99.90;;;;;;4986770;28;20043;-73
2023/12/19 03:57:25;;;;;;;29.73;17.20;;;7.40;99.90;;;;;;4976144;28;20106;-73
2023/12/19 03:59:51;;;;;;;29.67;16.17;;;7.40;99.90;;;;;;4985827;28;20039;-73
2023/12/19 04:02:16;;;;;;;31.25;17.48;;;7.40;99.90;;;;;;4976728;28;20105;-73
2023/12/19 04:04:42;;;;;;;31.77;17.42;;;7.40;99.90;;;;;;4979233;28;20112;-73
2023/12/19 04:07:08;;;;;;;31.38;16.92;;;7.40;99.90;;;;;;4976011;28;20142;-73
2023/12/19 04:09:33;;;;;;;35.10;18.65;;;7.40;99.90;;;;;;4977333;28;20050;-73
2023/12/19 04:12:02;;;;;;;32.47;18.38;;;7.40;99.90;;;;;;4987671;28;20038;-73
2023/12/19 04:14:29;;;;;;;32.88;18.58;;;7.40;99.90;;;;;;4991836;28;20100;-73
2023/12/19 04:16:54;;;;;;;40.53;20.25;;;7.40;99.90;;;;;;4984530;28;20047;-73
2023/12/19 04:19:21;;;;;;;36.65;20.02;;;7.40;99.90;;;;;;4977121;28;20034;-73
2023/12/19 04:21:47;;;;;;;38.85;20.77;;;7.40;99.90;;;;;;4977340;28;20502;-73
2023/12/19 04:24:13;;;;;;;38.35;19.98;;;7.40;99.90;;;;;;4981811;28;20045;-73
2023/12/19 04:26:38;;;;;;;40.22;21.25;;;7.40;99.90;;;;;;4976211;28;20038;-72
2023/12/19 04:29:04;;;;;;;42.45;21.42;;;7.40;99.90;;;;;;4980807;28;20050;-73
2023/12/19 04:31:30;;;;;;;40.50;21.95;;;7.40;99.90;;;;;;4991895;28;20049;-73
2023/12/19 04:33:55;;;;;;;43.05;21.38;;;7.40;99.90;;;;;;4991504;28;20077;-73
2023/12/19 04:36:21;;;;;;;40.78;21.17;;;7.50;99.90;;;;;;4976876;28;20031;-73
2023/12/19 04:38:47;;;;;;;40.20;20.73;;;7.40;99.90;;;;;;4978125;28;20046;-73
2023/12/19 04:41:13;;;;;;;41.65;21.33;;;8.00;99.90;;;;;;4960344;28;20043;-73
2023/12/19 04:43:38;;;;;;;43.92;21.48;;;7.50;99.90;;;;;;4980265;28;20038;-73
2023/12/19 04:46:08;;;;;;;44.25;21.25;;;7.50;99.90;;;;;;4976072;28;20584;-73
2023/12/19 04:48:34;;;;;;;34.88;19.20;;;7.50;99.90;;;;;;4979033;28;20392;-73
2023/12/19 04:51:00;;;;;;;39.70;19.27;;;7.50;99.90;;;;;;5006540;28;20078;-73
2023/12/19 04:53:26;;;;;;;38.67;20.55;;;7.50;99.90;;;;;;4989248;28;20066;-73
2023/12/19 04:55:52;;;;;;;37.03;20.08;;;7.60;99.90;;;;;;5000737;28;20057;-73
2023/12/19 04:58:18;;;;;;;39.13;19.63;;;7.60;99.90;;;;;;4974561;28;20039;-73
2023/12/19 05:00:43;;;;;;;40.20;20.15;;;7.60;99.90;;;;;;4954071;28;20039;-73
2023/12/19 05:03:09;;;;;;;37.90;19.50;;;8.30;99.90;;;;;;4986492;28;20160;-73
2023/12/19 05:05:35;;;;;;;33.50;17.67;;;7.60;99.90;;;;;;4976858;28;20073;-73
2023/12/19 05:08:01;;;;;;;28.98;16.50;;;7.60;99.90;;;;;;4984737;28;20078;-73
2023/12/19 05:10:29;;;;;;;34.88;17.88;;;7.60;99.90;;;;;;4979900;28;20532;-73
2023/12/19 05:12:54;;;;;;;32.58;17.48;;;7.70;99.90;;;;;;4976724;28;20121;-73
2023/12/19 05:15:20;;;;;;;32.53;17.42;;;7.70;99.90;;;;;;4979474;28;20444;-73
2023/12/19 05:17:46;;;;;;;32.90;16.83;;;7.70;99.90;;;;;;4974328;28;20053;-73
2023/12/19 05:20:11;;;;;;;29.67;16.85;;;7.60;99.90;;;;;;4977489;28;20062;-73
2023/12/19 05:22:37;;;;;;;31.75;16.05;;;7.70;99.90;;;;;;4987375;28;20378;-73
2023/12/19 05:25:04;;;;;;;25.85;14.95;;;7.60;99.90;;;;;;4982452;28;20053;-75
2023/12/19 05:27:30;;;;;;;30.58;15.63;;;7.70;99.90;;;;;;4979966;28;20034;-73
2023/12/19 05:29:56;;;;;;;29.63;15.23;;;7.70;99.90;;;;;;4972224;28;20116;-73
2023/12/19 05:32:21;;;;;;;30.40;15.90;;;7.70;99.90;;;;;;4974304;28;20050;-73
2023/12/19 05:34:47;;;;;;;25.88;14.65;;;7.70;99.90;;;;;;4973382;28;20044;-73
2023/12/19 05:37:13;;;;;;;30.98;15.52;;;7.70;99.90;;;;;;4976551;28;20035;-74
2023/12/19 05:39:42;;;;;;;25.77;13.93;;;7.70;99.90;;;;;;4963823;28;20522;-76
2023/12/19 05:42:11;;;;;;;24.88;13.88;;;7.70;99.90;;;;;;4971877;28;20053;-73
2023/12/19 05:44:37;;;;;;;22.55;13.10;;;7.70;99.90;;;;;;4972812;28;20046;-73
2023/12/19 05:47:03;;;;;;;21.33;13.15;;;7.70;99.90;;;;;;4977751;28;20530;-73
2023/12/19 05:49:29;;;;;;;20.73;12.82;;;7.70;99.90;;;;;;4978002;28;20113;-73
2023/12/19 05:51:55;;;;;;;22.40;11.93;;;7.70;99.90;;;;;;4983637;28;20489;-74
2023/12/19 05:54:21;;;;;;;21.10;12.30;;;7.70;99.90;;;;;;4990911;28;20046;-74
2023/12/19 05:56:47;;;;;;;19.98;12.02;;;7.70;99.90;;;;;;5001801;28;20039;-74
2023/12/19 05:59:13;;;;;;;21.77;13.02;;;7.70;99.90;;;;;;4978267;28;20054;-74
2023/12/19 06:01:45;;;;;;;22.02;11.70;;;8.30;99.90;;;;;;4982267;28;20043;-75
2023/12/19 06:04:11;;;;;;;19.38;10.38;;;7.70;99.90;;;;;;4976541;28;20407;-74
2023/12/19 06:06:42;;;;;;;19.80;10.95;;;8.20;99.90;;;;;;4964076;28;20035;-74
2023/12/19 06:09:10;;;;;;;17.75;9.60;;;7.70;99.90;;;;;;4990418;28;20058;-74
2023/12/19 06:11:35;;;;;;;17.17;9.90;;;7.70;99.90;;;;;;4976615;28;20046;-73
2023/12/19 06:14:01;;;;;;;16.48;9.90;;;7.80;99.90;;;;;;4988145;28;20034;-74
2023/12/19 06:16:27;;;;;;;15.88;9.65;;;7.70;99.90;;;;;;4987366;28;20043;-74
2023/12/19 06:18:52;;;;;;;17.65;10.18;;;7.70;99.90;;;;;;4981903;28;20121;-74
2023/12/19 06:21:18;;;;;;;16.40;9.43;;;7.70;99.90;;;;;;4980816;28;20456;-74
2023/12/19 06:23:43;;;;;;;15.43;9.07;;;7.80;99.90;;;;;;4998487;28;20034;-73
2023/12/19 06:26:13;;;;;;;16.40;9.90;;;7.80;99.90;;;;;;4989728;28;20046;-74
2023/12/19 06:28:39;;;;;;;16.80;9.90;;;7.80;99.90;;;;;;4987003;28;20112;-73
2023/12/19 06:31:06;;;;;;;14.90;8.43;;;7.80;99.90;;;;;;4982759;28;20041;-74
2023/12/19 06:33:36;;;;;;;16.17;9.70;;;7.80;99.90;;;;;;4984355;28;20113;-74
2023/12/19 06:36:03;;;;;;;15.15;9.30;;;7.80;99.90;;;;;;4982397;28;20073;-73
2023/12/19 06:38:30;;;;;;;15.88;9.55;;;7.80;99.90;;;;;;4998705;28;20039;-73
2023/12/19 06:40:56;;;;;;;17.23;9.68;;;7.80;99.90;;;;;;4962454;28;20042;-70
2023/12/19 06:43:22;;;;;;;16.77;10.15;;;7.80;99.90;;;;;;4974702;28;20588;-73
2023/12/19 06:45:48;;;;;;;17.27;10.02;;;7.80;99.90;;;;;;4977500;28;20034;-74
2023/12/19 06:48:14;;;;;;;18.33;9.95;;;7.80;99.90;;;;;;4984669;28;20657;-74
2023/12/19 06:50:40;;;;;;;16.80;10.07;;;7.70;99.90;;;;;;4979405;28;20050;-74
2023/12/19 06:53:11;;;;;;;18.98;9.95;;;7.80;99.90;;;;;;4988184;28;20038;-74
2023/12/19 06:55:38;;;;;;;16.27;9.65;;;7.80;99.90;;;;;;4985762;28;20050;-74
2023/12/19 06:58:08;;;;;;;20.38;10.10;;;7.80;99.90;;;;;;4964194;28;20622;-74
2023/12/19 07:00:34;;;;;;;17.63;9.90;;;7.70;99.90;;;;;;4990629;28;20034;-74
2023/12/19 07:02:59;;;;;;;17.73;10.07;;;7.70;99.90;;;;;;4989162;28;20418;-74
2023/12/19 07:05:25;;;;;;;18.02;10.68;;;7.80;99.90;;;;;;4982550;28;20444;-74
2023/12/19 07:07:51;;;;;;;16.98;9.68;;;7.70;99.90;;;;;;4979923;28;20121;-74
2023/12/19 07:10:17;;;;;;;17.63;9.40;;;7.70;99.90;;;;;;4990652;28;20100;-74
2023/12/19 07:12:42;;;;;;;18.27;9.73;;;7.70;99.90;;;;;;4982820;28;20050;-74
2023/12/19 07:15:08;;;;;;;14.85;9.52;;;7.70;99.90;;;;;;4981712;28;20041;-73
2023/12/19 07:17:39;;;;;;;15.07;9.02;;;7.70;99.90;;;;;;4989749;28;20043;-75
2023/12/19 07:20:05;;;;;;;14.95;8.85;;;7.70;99.90;;;;;;4988616;28;20125;-74
2023/12/19 07:22:30;;;;;;;14.75;9.50;;;7.60;99.90;;;;;;4991775;28;20166;-74
2023/12/19 07:24:56;;;;;;;19.30;9.60;;;7.70;99.90;;;;;;4993720;28;20551;-74
2023/12/19 07:27:22;;;;;;;15.35;9.32;;;7.70;99.90;;;;;;4990989;28;20301;-74
2023/12/19 07:29:47;;;;;;;16.08;8.75;;;7.80;99.90;;;;;;4992878;28;20456;-74
2023/12/19 07:32:13;;;;;;;15.57;8.98;;;7.80;99.90;;;;;;4991082;28;20833;-74
2023/12/19 07:34:39;;;;;;;14.27;8.18;;;7.70;99.90;;;;;;4989941;28;20046;-74
2023/12/19 07:37:05;;;;;;;13.90;8.52;;;7.80;99.90;;;;;;4983002;28;20134;-74
2023/12/19 07:39:31;;;;;;;15.52;8.90;;;7.80;99.90;;;;;;4984745;28;20606;-73
2023/12/19 07:41:57;;;;;;;15.48;9.18;;;7.80;99.90;;;;;;4991955;28;20389;-74
2023/12/19 07:44:23;;;;;;;15.45;8.80;;;7.80;99.90;;;;;;4990043;28;20065;-74
2023/12/19 07:46:49;;;;;;;17.25;8.80;;;7.80;99.90;;;;;;4985587;28;20046;-74
2023/12/19 07:49:20;;;;;;;14.45;8.65;;;7.80;99.90;;;;;;4972727;28;20042;-74
2023/12/19 07:51:51;;;;;;;14.63;9.00;;;7.90;99.90;;;;;;4993636;28;20125;-74
2023/12/19 07:54:19;;;;;;;16.50;8.77;;;7.80;99.90;;;;;;4962095;28;20094;-74
2023/12/19 07:56:46;;;;;;;17.02;8.93;;;7.80;99.90;;;;;;4964492;28;20045;-75
2023/12/19 07:59:12;;;;;;;17.10;9.35;;;7.80;99.90;;;;;;4989415;28;20046;-74
2023/12/19 08:01:46;;;;;;;17.08;8.95;;;7.90;99.90;;;;;;4984041;28;20126;-75
2023/12/19 08:04:20;;;;;;;15.65;8.55;;;7.90;99.90;;;;;;4986185;28;20042;-74
2023/12/19 08:06:47;;;;;;;15.70;8.77;;;7.90;99.90;;;;;;4992332;28;20469;-75
2023/12/19 08:09:14;;;;;;;15.30;8.57;;;7.90;99.90;;;;;;4991651;28;20484;-75
2023/12/19 08:11:40;;;;;;;14.77;8.85;;;7.90;99.90;;;;;;4986515;28;20046;-75
2023/12/19 08:14:05;;;;;;;15.23;9.27;;;7.90;99.90;;;;;;4988671;28;20042;-74
2023/12/19 08:16:31;;;;;;;15.38;8.70;;;7.90;99.90;;;;;;4964719;28;20532;-75
2023/12/19 08:18:57;;;;;;;16.63;8.73;;;7.90;99.90;;;;;;4983115;28;20070;-75
2023/12/19 08:21:23;;;;;;;15.98;9.00;;;7.90;99.90;;;;;;4987594;28;20046;-75
2023/12/19 08:23:50;;;;;;;15.73;8.65;;;7.90;99.90;;;;;;4986883;28;20084;-75
2023/12/19 08:26:16;;;;;;;15.57;9.13;;;8.00;99.90;;;;;;4991364;28;20057;-75
2023/12/19 08:28:49;;;;;;;15.93;8.63;;;8.00;99.90;;;;;;4983970;28;20046;-76
2023/12/19 08:31:18;;;;;;;15.52;8.43;;;8.00;99.90;;;;;;4990535;28;20038;-74
2023/12/19 08:33:46;;;;;;;14.93;8.52;;;8.00;99.90;;;;;;4975534;28;20050;-73
2023/12/19 08:36:12;;;;;;;16.85;9.60;;;8.80;99.90;;;;;;4984487;28;20046;-74
2023/12/19 08:38:43;;;;;;;16.73;9.38;;;8.10;99.90;;;;;;4988676;28;20130;-73
2023/12/19 08:41:08;;;;;;;15.95;9.25;;;8.10;99.90;;;;;;4982394;28;20126;-73
2023/12/19 08:43:34;;;;;;;18.25;9.75;;;8.10;99.90;;;;;;4984362;28;20121;-73
2023/12/19 08:45:59;;;;;;;18.70;9.85;;;8.10;99.90;;;;;;4986877;28;20042;-73
2023/12/19 08:48:25;;;;;;;16.15;9.52;;;8.10;99.90;;;;;;4986726;28;20038;-73
2023/12/19 08:50:50;;;;;;;17.30;9.90;;;8.20;99.90;;;;;;4987533;28;20069;-73
2023/12/19 08:53:16;;;;;;;18.15;10.00;;;8.20;99.90;;;;;;4985671;28;20038;-73
2023/12/19 08:55:44;;;;;;;18.40;10.95;;;8.20;99.90;;;;;;4986756;28;20070;-73
2023/12/19 08:58:10;;;;;;;19.08;10.90;;;8.20;99.90;;;;;;4989620;28;20034;-73
2023/12/19 09:00:35;;;;;;;17.98;10.55;;;8.30;99.90;;;;;;4990910;28;20049;-73
2023/12/19 09:03:01;;;;;;;19.42;10.95;;;8.30;99.90;;;;;;4991663;28;20030;-73
2023/12/19 09:05:26;;;;;;;20.77;11.75;;;8.40;99.90;;;;;;4990107;28;20066;-74
2023/12/19 09:07:52;;;;;;;20.75;11.95;;;8.40;99.90;;;;;;4984211;28;20042;-74
2023/12/19 09:10:17;;;;;;;19.88;10.73;;;8.40;99.90;;;;;;4989978;28;20042;-73
2023/12/19 09:12:43;;;;;;;17.77;10.70;;;8.40;99.90;;;;;;4991170;28;20050;-75
2023/12/19 09:15:12;;;;;;;18.13;11.15;;;8.50;99.90;;;;;;4989040;28;20141;-75
2023/12/19 09:17:39;;;;;;;19.70;11.85;;;8.50;99.90;;;;;;4988470;28;20101;-75
2023/12/19 09:20:05;;;;;;;19.08;11.95;;;8.60;99.90;;;;;;4987343;28;20046;-74
2023/12/19 09:22:32;;;;;;;23.23;12.27;;;8.60;99.90;;;;;;4985082;28;20039;-74
2023/12/19 09:24:57;;;;;;;23.23;13.23;;;8.60;99.90;;;;;;4986794;28;20038;-73
2023/12/19 09:27:24;;;;;;;20.98;12.48;;;8.70;99.90;;;;;;4990585;28;20488;-74
2023/12/19 09:29:51;;;;;;;22.42;13.68;;;8.70;99.90;;;;;;4990508;28;20042;-73
2023/12/19 09:32:19;;;;;;;22.17;13.82;;;9.10;99.90;;;;;;4987042;28;20050;-74
2023/12/19 09:34:46;;;;;;;21.88;14.23;;;8.70;99.90;;;;;;4991929;28;20049;-75
2023/12/19 09:37:12;;;;;;;26.83;15.13;;;8.70;99.90;;;;;;4990842;28;20034;-73
2023/12/19 09:39:37;;;;;;;27.05;15.48;;;8.70;99.90;;;;;;5017622;23;20053;-74
2023/12/19 09:42:03;;;;;;;28.35;15.68;;;8.70;99.90;;;;;;5021958;28;20041;-74
2023/12/19 09:44:29;;;;;;;28.35;16.08;;;8.70;99.90;;;;;;5022587;28;20487;-75
2023/12/19 09:46:55;;;;;;;29.30;16.27;;;8.70;99.90;;;;;;5023260;28;20132;-73
2023/12/19 09:49:23;;;;;;;29.20;15.50;;;8.70;99.90;;;;;;5042138;28;20037;-73
2023/12/19 09:51:54;;;;;;;30.48;16.83;;;8.70;99.90;;;;;;5026215;28;20041;-73
2023/12/19 09:54:23;;;;;;;25.80;15.10;;;8.70;99.90;;;;;;5025904;28;20041;-74
2023/12/19 09:56:50;;;;;;;27.42;16.67;;;8.80;99.90;;;;;;5023433;28;20496;-73
2023/12/19 09:59:19;;;;;;;29.92;16.77;;;8.80;99.90;;;;;;5026135;28;20048;-73
2023/12/19 10:01:45;;;;;;;28.10;16.40;;;8.70;99.90;;;;;;5021443;28;20033;-73
2023/12/19 10:04:14;;;;;;;31.48;16.95;;;8.80;99.90;;;;;;5024672;28;20071;-73
2023/12/19 10:06:57;;;;;;;32.88;17.08;;;8.80;99.90;;;;;;5023547;28;20132;-72
2023/12/19 10:09:23;;;;;;;27.10;16.15;;;8.80;99.90;;;;;;5017747;28;20136;-74
2023/12/19 10:12:04;;;;;;;29.05;16.42;;;8.70;99.90;;;;;;5013530;28;20049;-75
2023/12/19 10:14:30;;;;;;;28.63;16.90;;;8.70;99.90;;;;;;5018913;28;20052;-73
2023/12/19 10:16:56;;;;;;;26.48;15.77;;;8.70;99.90;;;;;;5023300;28;20455;-73
2023/12/19 10:19:26;;;;;;;26.55;16.55;;;8.80;99.90;;;;;;5019989;28;20041;-75
2023/12/19 10:22:05;;;;;;;29.10;16.13;;;8.70;99.90;;;;;;5029906;28;20072;-73
2023/12/19 10:24:30;;;;;;;27.42;15.90;;;8.80;99.90;;;;;;5033932;28;20040;-73
2023/12/19 10:27:00;;;;;;;24.30;15.18;;;8.70;99.90;;;;;;5019808;28;20133;-73
2023/12/19 10:29:26;;;;;;;29.75;17.27;;;8.80;99.90;;;;;;5025831;28;20373;-73
2023/12/19 10:31:52;;;;;;;27.38;16.77;;;8.70;99.90;;;;;;5019766;28;20100;-74
2023/12/19 10:34:18;;;;;;;27.35;16.17;;;8.70;99.90;;;;;;5018500;28;20124;-74
2023/12/19 10:36:44;;;;;;;29.52;16.27;;;8.70;99.90;;;;;;5022235;28;20048;-73
2023/12/19 10:39:11;;;;;;;27.90;16.33;;;8.70;99.90;;;;;;5016331;28;20038;-73
2023/12/19 10:41:40;;;;;;;26.52;16.10;;;8.70;99.90;;;;;;5023554;28;20037;-73
2023/12/19 10:44:06;;;;;;;25.88;15.45;;;8.70;99.90;;;;;;5021345;28;20405;-74
2023/12/19 10:46:32;;;;;;;27.75;16.77;;;8.70;99.90;;;;;;5023711;28;20041;-74
2023/12/19 10:48:59;;;;;;;24.85;15.73;;;8.70;99.90;;;;;;5018755;28;20045;-74
2023/12/19 10:51:32;;;;;;;25.90;15.50;;;8.70;99.90;;;;;;5022756;28;20045;-74
2023/12/19 10:54:14;;;;;;;27.38;15.90;;;8.70;99.90;;;;;;5021778;28;20064;-74
2023/12/19 10:57:12;;;;;;;28.10;15.93;;;8.70;99.90;;;;;;5018566;28;20046;-73
2023/12/19 10:59:58;;;;;;;28.80;16.55;;;8.70;99.90;;;;;;5022914;28;20520;-74
2023/12/19 11:02:47;;;;;;;29.23;16.55;;;8.70;99.90;;;;;;5013146;28;20550;-74
2023/12/19 11:05:32;;;;;;;26.67;15.70;;;8.70;99.90;;;;;;5027896;28;20103;-74
2023/12/19 11:08:03;;;;;;;26.27;15.48;;;8.70;99.90;;;;;;5027061;28;20432;-73
2023/12/19 11:10:37;;;;;;;27.58;16.02;;;8.70;99.90;;;;;;5030259;28;20092;-74
2023/12/19 11:13:03;;;;;;;27.98;15.98;;;8.70;99.90;;;;;;5029153;28;20037;-73
2023/12/19 11:15:30;;;;;;;25.00;16.25;;;8.70;99.90;;;;;;5022305;28;20038;-73
2023/12/19 11:18:02;;;;;;;25.58;16.10;;;8.70;99.90;;;;;;5031924;28;20048;-73
2023/12/19 11:20:47;;;;;;;23.95;14.82;;;8.70;99.90;;;;;;5031888;28;20588;-73
2023/12/19 11:23:39;;;;;;;23.70;14.95;;;8.70;99.90;;;;;;5031707;28;20045;-75
2023/12/19 11:26:23;;;;;;;20.85;14.65;;;8.70;99.90;;;;;;5019474;28;20045;-74
2023/12/19 11:28:49;;;;;;;24.75;15.60;;;8.70;99.90;;;;;;5022024;28;20799;-75
2023/12/19 11:31:31;;;;;;;25.58;14.85;;;8.70;99.90;;;;;;5024276;28;20084;-76
2023/12/19 11:34:18;;;;;;;25.70;14.35;;;8.70;99.90;;;;;;5030914;28;20041;-77
2023/12/19 11:36:44;;;;;;;22.50;14.00;;;8.70;99.90;;;;;;5036574;28;20120;-75
2023/12/19 11:39:26;;;;;;;21.25;13.15;;;8.70;99.90;;;;;;5017636;28;20116;-75
2023/12/19 11:41:51;;;;;;;21.42;14.23;;;8.70;99.90;;;;;;5027906;28;20504;-75
2023/12/19 11:44:33;;;;;;;24.98;14.77;;;8.70;99.90;;;;;;5025987;28;20084;-78
2023/12/19 11:47:28;;;;;;;25.88;14.75;;;8.70;99.90;;;;;;5025825;28;20543;-75
2023/12/19 11:49:53;;;;;;;21.30;13.80;;;8.70;99.90;;;;;;5029855;28;20052;-74
2023/12/19 11:52:51;;;;;;;21.33;13.90;;;8.80;99.90;;;;;;5022855;28;20491;-75
2023/12/19 11:55:22;;;;;;;21.73;13.77;;;8.70;99.90;;;;;;5015722;28;20103;-74
2023/12/19 11:57:47;;;;;;;21.15;12.70;;;8.70;99.90;;;;;;5016769;28;20053;-76
2023/12/19 12:00:13;;;;;;;18.95;12.93;;;8.80;99.90;;;;;;5026794;28;20049;-75
2023/12/19 12:02:39;;;;;;;20.38;12.85;;;8.80;99.90;;;;;;5025577;28;20092;-74
2023/12/19 12:05:08;;;;;;;21.42;13.50;;;8.80;99.90;;;;;;5024222;28;20046;-74
2023/12/19 12:07:39;;;;;;;20.38;12.80;;;8.80;99.90;;;;;;5029515;28;20049;-75
2023/12/19 12:10:06;;;;;;;20.27;13.80;;;8.80;99.90;;;;;;5022298;28;20049;-75
2023/12/19 12:12:35;;;;;;;20.88;13.07;;;8.80;99.90;;;;;;5028891;28;20467;-74
2023/12/19 12:15:21;;;;;;;19.52;12.15;;;8.80;99.90;;;;;;5022430;28;20057;-74
2023/12/19 12:17:47;;;;;;;19.63;12.77;;;8.90;99.90;;;;;;5029615;28;20079;-75
2023/12/19 12:20:14;;;;;;;19.52;12.52;;;8.80;99.90;;;;;;5005688;28;20399;-74
2023/12/19 12:22:40;;;;;;;18.63;12.73;;;8.80;99.90;;;;;;5026692;28;20045;-75
2023/12/19 12:25:06;;;;;;;18.00;12.18;;;8.80;99.90;;;;;;5023914;28;20038;-75
2023/12/19 12:27:33;;;;;;;19.40;12.40;;;8.80;99.90;;;;;;5022132;28;20104;-74
2023/12/19 12:30:02;;;;;;;22.67;12.95;;;8.80;99.90;;;;;;5021421;28;20044;-75
2023/12/19 12:32:28;;;;;;;20.98;12.18;;;8.80;99.90;;;;;;5015825;28;20038;-75
2023/12/19 12:34:54;;;;;;;20.65;13.10;;;8.80;99.90;;;;;;5018560;28;20045;-73
2023/12/19 12:37:19;;;;;;;20.65;12.65;;;8.80;99.90;;;;;;5031479;28;20064;-74
2023/12/19 12:39:45;;;;;;;18.70;12.30;;;8.80;99.90;;;;;;5013185;28;20038;-74